Terminal Aerodrome Forecast
Issued by NWS Cleveland, OH

Home | Current Version | Previous Version | Graphics & Text | Print | Product List | Glossary On
Versions: 1 2 3 4 5 6 7 8 9 10 11 12 13 14 15 16 17 18
000
FTUS41 KCLE 211700
TAFYNG
TAF
KYNG 211730Z 2118/2218 33008KT P6SM BKN050 OVC100
     FM220300 24005KT P6SM SCT100
     FM221100 25006KT P6SM VCSH BKN050
     FM221500 29010KT P6SM BKN050=

USA.gov is the U.S. government's official web portal to all federal, state and local government web resources and services.